Time;durP1;ratioP1;P1;durP2;ratioP2;P2;SDS_P1;SDS_P2;PMS_P1;PMS_P2;Temp;Humidity;BMP_temperature;BMP_pressure;BME280_temperature;BME280_humidity;BME280_pressure;Samples;Min_cycle;Max_cycle;Signal;HPM_P1;HPM_P2
2022/05/15 00:02:33;;;;;;;;;;;;;;;;;;5068418;28;1033;-75
2022/05/15 00:04:58;;;;;;;;;;;;;;;;;;5058417;28;1349;-76
2022/05/15 00:07:24;;;;;;;;;;;;;;;;;;5087675;28;1029;-76
2022/05/15 00:09:49;;;;;;;;;;;;;;;;;;5070426;28;1258;-75
2022/05/15 00:12:21;;;;;;;;;;;;;;;;;;5085975;28;1973;-75
2022/05/15 00:14:47;;;;;;;;;;;;;;;;;;5085653;28;1153;-77
2022/05/15 00:17:13;;;;;;;;;;;;;;;;;;5087909;28;1207;-74
2022/05/15 00:19:39;;;;;;;;;;;;;;;;;;5046890;28;1017;-74
2022/05/15 00:22:04;;;;;;;;;;;;;;;;;;5068643;28;1129;-75
2022/05/15 00:24:30;;;;;;;;;;;;;;;;;;5065321;28;1137;-75
2022/05/15 00:26:55;;;;;;;;;;;;;;;;;;5050334;28;1224;-75
2022/05/15 00:29:21;;;;;;;;;;;;;;;;;;5058978;28;1445;-76
2022/05/15 00:31:46;;;;;;;;;;;;;;;;;;5069153;28;1267;-76
2022/05/15 00:34:12;;;;;;;;;;;;;;;;;;5068413;28;1894;-74
2022/05/15 00:36:37;;;;;;;;;;;;;;;;;;5048911;28;1281;-76
2022/05/15 00:39:03;;;;;;;;;;;;;;;;;;5066707;28;1121;-74
2022/05/15 00:41:29;;;;;;;;;;;;;;;;;;5052485;28;1199;-74
2022/05/15 00:43:58;;;;;;;;;;;;;;;;;;5064726;28;1180;-75
2022/05/15 00:46:31;;;;;;;;;;;;;;;;;;5086348;28;1224;-75
2022/05/15 00:48:58;;;;;;;;;;;;;;;;;;5084667;28;1129;-76
2022/05/15 00:51:29;;;;;;;;;;;;;;;;;;5052268;28;1198;-74
2022/05/15 00:53:57;;;;;;;;;;;;;;;;;;5066634;28;1898;-75
2022/05/15 00:56:27;;;;;;;;;;;;;;;;;;5053582;28;1315;-76
2022/05/15 00:58:55;;;;;;;;;;;;;;;;;;5079169;28;1045;-75
2022/05/15 01:01:20;;;;;;;;;;;;;;;;;;5069306;28;1160;-75
2022/05/15 01:03:48;;;;;;;;;;;;;;;;;;5039137;28;1477;-75
2022/05/15 01:06:14;;;;;;;;;;;;;;;;;;5059115;28;1196;-75
2022/05/15 01:08:39;;;;;;;;;;;;;;;;;;5059577;28;1253;-75
2022/05/15 01:11:10;;;;;;;;;;;;;;;;;;5080344;28;1215;-75
2022/05/15 01:13:37;;;;;;;;;;;;;;;;;;5043910;28;1914;-75
2022/05/15 01:16:03;;;;;;;;;;;;;;;;;;5066022;28;1090;-75
2022/05/15 01:18:32;;;;;;;;;;;;;;;;;;5067183;28;1327;-76
2022/05/15 01:20:59;;;;;;;;;;;;;;;;;;5055219;28;1164;-76
2022/05/15 01:23:30;;;;;;;;;;;;;;;;;;5065093;28;1324;-75
2022/05/15 01:25:58;;;;;;;;;;;;;;;;;;5045608;28;1181;-76
2022/05/15 01:28:29;;;;;;;;;;;;;;;;;;5052708;28;1199;-76
2022/05/15 01:30:57;;;;;;;;;;;;;;;;;;5084376;28;1121;-75
2022/05/15 01:33:23;;;;;;;;;;;;;;;;;;5054476;28;1918;-76
2022/05/15 01:35:48;;;;;;;;;;;;;;;;;;5054971;28;1365;-76
2022/05/15 01:38:13;;;;;;;;;;;;;;;;;;5071202;28;1160;-75
2022/05/15 01:40:39;;;;;;;;;;;;;;;;;;5062376;28;1475;-75
2022/05/15 01:43:05;;;;;;;;;;;;;;;;;;5060553;28;1164;-75
2022/05/15 01:45:30;;;;;;;;;;;;;;;;;;5066557;28;1149;-75
2022/05/15 01:47:56;;;;;;;;;;;;;;;;;;5074927;28;1244;-75
2022/05/15 01:50:21;;;;;;;;;;;;;;;;;;5049663;28;1433;-75
2022/05/15 01:52:47;;;;;;;;;;;;;;;;;;5045773;28;1902;-75
2022/05/15 01:55:12;;;;;;;;;;;;;;;;;;5066920;28;1094;-75
2022/05/15 01:57:38;;;;;;;;;;;;;;;;;;5058526;28;1264;-74
2022/05/15 02:00:08;;;;;;;;;;;;;;;;;;5066761;28;1145;-76
2022/05/15 02:02:33;;;;;;;;;;;;;;;;;;5067343;28;1203;-75
2022/05/15 02:04:58;;;;;;;;;;;;;;;;;;5084934;28;1207;-75
2022/05/15 02:07:24;;;;;;;;;;;;;;;;;;5060971;28;1156;-75
2022/05/15 02:09:49;;;;;;;;;;;;;;;;;;5043217;28;1304;-76
2022/05/15 02:12:14;;;;;;;;;;;;;;;;;;5046309;28;1909;-76
2022/05/15 02:14:40;;;;;;;;;;;;;;;;;;5046374;28;1446;-76
2022/05/15 02:17:05;;;;;;;;;;;;;;;;;;5052199;28;1220;-76
2022/05/15 02:19:31;;;;;;;;;;;;;;;;;;5048670;28;1287;-75
2022/05/15 02:22:00;;;;;;;;;;;;;;;;;;5066944;28;1360;-75
2022/05/15 02:24:25;;;;;;;;;;;;;;;;;;5068086;28;1267;-75
2022/05/15 02:26:51;;;;;;;;;;;;;;;;;;5056049;28;1179;-76
2022/05/15 02:29:16;;;;;;;;;;;;;;;;;;5077000;28;1381;-72
2022/05/15 02:31:41;;;;;;;;;;;;;;;;;;5063687;28;1266;-74
2022/05/15 02:34:06;;;;;;;;;;;;;;;;;;5084266;28;1953;-76
2022/05/15 02:36:33;;;;;;;;;;;;;;;;;;5057079;28;1175;-76
2022/05/15 02:38:59;;;;;;;;;;;;;;;;;;5066690;28;1327;-76
2022/05/15 02:41:24;;;;;;;;;;;;;;;;;;5047720;28;1164;-76
2022/05/15 02:43:50;;;;;;;;;;;;;;;;;;5057909;28;1006;-76
2022/05/15 02:46:15;;;;;;;;;;;;;;;;;;5065018;28;1267;-77
2022/05/15 02:51:24;;;;;;;;;;;;;;;;;;5089494;28;1197;-76
2022/05/15 02:53:49;;;;;;;;;;;;;;;;;;5046334;28;1951;-76
2022/05/15 02:56:17;;;;;;;;;;;;;;;;;;5062129;28;1200;-76
2022/05/15 02:58:42;;;;;;;;;;;;;;;;;;5069192;28;1117;-77
2022/05/15 03:01:08;;;;;;;;;;;;;;;;;;5085165;28;1153;-76
2022/05/15 03:03:33;;;;;;;;;;;;;;;;;;5050328;28;1292;-76
2022/05/15 03:05:58;;;;;;;;;;;;;;;;;;5044822;28;1164;-76
2022/05/15 03:08:23;;;;;;;;;;;;;;;;;;5065966;28;1129;-76
2022/05/15 03:10:49;;;;;;;;;;;;;;;;;;5072088;28;1165;-76
2022/05/15 03:13:14;;;;;;;;;;;;;;;;;;5064913;28;2005;-76
2022/05/15 03:15:43;;;;;;;;;;;;;;;;;;5059371;28;1235;-76
2022/05/15 03:18:08;;;;;;;;;;;;;;;;;;5051501;28;1172;-76
2022/05/15 03:20:33;;;;;;;;;;;;;;;;;;5067868;28;1141;-76
2022/05/15 03:22:59;;;;;;;;;;;;;;;;;;5052245;28;1334;-77
2022/05/15 03:25:26;;;;;;;;;;;;;;;;;;5078705;28;1161;-76
2022/05/15 03:27:52;;;;;;;;;;;;;;;;;;5065364;28;1279;-76
2022/05/15 03:30:17;;;;;;;;;;;;;;;;;;5035426;28;1184;-75
2022/05/15 03:32:46;;;;;;;;;;;;;;;;;;5048229;28;1886;-76
2022/05/15 03:35:14;;;;;;;;;;;;;;;;;;5067398;28;1313;-76
2022/05/15 03:37:40;;;;;;;;;;;;;;;;;;5071166;28;1299;-76
2022/05/15 03:40:06;;;;;;;;;;;;;;;;;;5049495;28;1418;-77
2022/05/15 03:42:32;;;;;;;;;;;;;;;;;;5066008;28;1224;-76
2022/05/15 03:44:57;;;;;;;;;;;;;;;;;;5062961;28;1216;-75
2022/05/15 03:47:22;;;;;;;;;;;;;;;;;;5053949;28;1275;-74
2022/05/15 03:49:48;;;;;;;;;;;;;;;;;;5071304;28;1219;-77
2022/05/15 03:52:16;;;;;;;;;;;;;;;;;;5053854;28;1936;-76
2022/05/15 03:54:42;;;;;;;;;;;;;;;;;;5087919;28;1315;-76
2022/05/15 03:57:08;;;;;;;;;;;;;;;;;;5068266;28;1232;-76
2022/05/15 03:59:36;;;;;;;;;;;;;;;;;;5060890;28;1353;-76
2022/05/15 04:02:02;;;;;;;;;;;;;;;;;;5061519;28;1152;-75
2022/05/15 04:04:28;;;;;;;;;;;;;;;;;;5080878;28;1275;-76
2022/05/15 04:06:54;;;;;;;;;;;;;;;;;;5065979;28;1267;-76
2022/05/15 04:09:20;;;;;;;;;;;;;;;;;;5067494;28;1264;-76
2022/05/15 04:11:45;;;;;;;;;;;;;;;;;;5067651;28;1248;-75
2022/05/15 04:14:11;;;;;;;;;;;;;;;;;;5053515;28;1928;-76
2022/05/15 04:16:39;;;;;;;;;;;;;;;;;;5062592;28;1176;-75
2022/05/15 04:19:05;;;;;;;;;;;;;;;;;;5065848;28;1445;-76
2022/05/15 04:21:36;;;;;;;;;;;;;;;;;;5073331;28;1128;-75
2022/05/15 04:24:02;;;;;;;;;;;;;;;;;;5066741;28;1355;-75
2022/05/15 04:26:27;;;;;;;;;;;;;;;;;;5050954;28;1306;-75
2022/05/15 04:28:52;;;;;;;;;;;;;;;;;;5052184;28;1292;-75
2022/05/15 04:31:18;;;;;;;;;;;;;;;;;;5061331;28;1268;-75
2022/05/15 04:33:44;;;;;;;;;;;;;;;;;;5068639;28;1965;-76
2022/05/15 04:36:17;;;;;;;;;;;;;;;;;;5046425;28;1268;-76
2022/05/15 04:38:42;;;;;;;;;;;;;;;;;;5054359;28;1192;-76
2022/05/15 04:41:07;;;;;;;;;;;;;;;;;;5066603;28;1368;-76
2022/05/15 04:43:32;;;;;;;;;;;;;;;;;;5049957;28;1196;-76
2022/05/15 04:45:58;;;;;;;;;;;;;;;;;;5068552;28;1152;-76
2022/05/15 04:48:23;;;;;;;;;;;;;;;;;;5069535;28;1154;-77
2022/05/15 04:50:49;;;;;;;;;;;;;;;;;;5085990;28;1171;-75
2022/05/15 04:53:14;;;;;;;;;;;;;;;;;;5038556;28;1973;-76
2022/05/15 04:55:40;;;;;;;;;;;;;;;;;;5064877;28;1198;-76
2022/05/15 04:58:05;;;;;;;;;;;;;;;;;;5083133;28;1274;-76
2022/05/15 05:00:30;;;;;;;;;;;;;;;;;;5049581;28;1195;-76
2022/05/15 05:02:56;;;;;;;;;;;;;;;;;;5047172;28;1326;-76
2022/05/15 05:05:21;;;;;;;;;;;;;;;;;;5044493;28;1211;-76
2022/05/15 05:07:47;;;;;;;;;;;;;;;;;;5054603;28;1215;-76
2022/05/15 05:10:14;;;;;;;;;;;;;;;;;;5069573;28;1364;-77
2022/05/15 05:12:41;;;;;;;;;;;;;;;;;;5063799;28;1934;-77
2022/05/15 05:15:07;;;;;;;;;;;;;;;;;;5044873;28;1409;-77
2022/05/15 05:17:32;;;;;;;;;;;;;;;;;;5049234;28;1176;-77
2022/05/15 05:19:58;;;;;;;;;;;;;;;;;;5064304;28;1245;-77
2022/05/15 05:22:23;;;;;;;;;;;;;;;;;;5067823;28;1160;-76
2022/05/15 05:24:50;;;;;;;;;;;;;;;;;;5065336;28;1032;-76
2022/05/15 05:27:15;;;;;;;;;;;;;;;;;;5046806;28;1165;-76
2022/05/15 05:29:41;;;;;;;;;;;;;;;;;;5047052;28;1603;-76
2022/05/15 05:32:06;;;;;;;;;;;;;;;;;;5062720;28;1882;-76
2022/05/15 05:34:31;;;;;;;;;;;;;;;;;;5060279;28;1132;-75
2022/05/15 05:36:57;;;;;;;;;;;;;;;;;;5052556;28;1401;-76
2022/05/15 05:39:23;;;;;;;;;;;;;;;;;;5057105;28;1250;-75
2022/05/15 05:41:49;;;;;;;;;;;;;;;;;;5063308;28;1148;-77
2022/05/15 05:44:15;;;;;;;;;;;;;;;;;;5056336;28;1287;-75
2022/05/15 05:46:40;;;;;;;;;;;;;;;;;;5081567;28;1191;-76
2022/05/15 05:49:05;;;;;;;;;;;;;;;;;;5058322;28;1159;-76
2022/05/15 05:51:30;;;;;;;;;;;;;;;;;;5067959;28;1145;-75
2022/05/15 05:53:56;;;;;;;;;;;;;;;;;;5073998;28;1914;-76
2022/05/15 05:56:21;;;;;;;;;;;;;;;;;;5083232;28;1248;-76
2022/05/15 05:58:46;;;;;;;;;;;;;;;;;;5052915;28;1101;-76
2022/05/15 06:01:13;;;;;;;;;;;;;;;;;;5049410;28;1402;-75
2022/05/15 06:06:23;;;;;;;;;;;;;;;;;;5072888;28;1052;-75
2022/05/15 06:08:48;;;;;;;;;;;;;;;;;;5068838;28;1172;-75
2022/05/15 06:11:14;;;;;;;;;;;;;;;;;;5086124;28;1156;-73
2022/05/15 06:13:39;;;;;;;;;;;;;;;;;;5044984;28;1972;-75
2022/05/15 06:16:05;;;;;;;;;;;;;;;;;;5068878;28;1149;-75
2022/05/15 06:18:31;;;;;;;;;;;;;;;;;;5069600;28;1310;-75
2022/05/15 06:20:56;;;;;;;;;;;;;;;;;;5063683;28;1172;-75
2022/05/15 06:23:21;;;;;;;;;;;;;;;;;;5049950;28;1443;-74
2022/05/15 06:25:47;;;;;;;;;;;;;;;;;;5049402;28;1244;-74
2022/05/15 06:28:13;;;;;;;;;;;;;;;;;;5061359;28;1090;-75
2022/05/15 06:30:38;;;;;;;;;;;;;;;;;;5062541;28;1283;-75
2022/05/15 06:33:07;;;;;;;;;;;;;;;;;;5047391;28;1894;-76
2022/05/15 06:35:32;;;;;;;;;;;;;;;;;;5064128;28;1173;-76
2022/05/15 06:38:05;;;;;;;;;;;;;;;;;;5064131;28;1180;-76
2022/05/15 06:40:31;;;;;;;;;;;;;;;;;;5048693;28;1236;-76
2022/05/15 06:42:59;;;;;;;;;;;;;;;;;;5062289;28;1009;-76
2022/05/15 06:45:25;;;;;;;;;;;;;;;;;;5071659;28;1172;-75
2022/05/15 06:47:51;;;;;;;;;;;;;;;;;;5072129;28;1449;-76
2022/05/15 06:50:16;;;;;;;;;;;;;;;;;;5079903;28;1208;-74
2022/05/15 06:52:41;;;;;;;;;;;;;;;;;;5038797;28;1922;-76
2022/05/15 06:55:18;;;;;;;;;;;;;;;;;;5056079;28;1251;-76
2022/05/15 06:57:57;;;;;;;;;;;;;;;;;;;;;
2022/05/15 07:00:25;;;;;;;;;;;;;;;;;;5081685;28;1132;-76
2022/05/15 07:02:50;;;;;;;;;;;;;;;;;;5084963;28;1089;-76
2022/05/15 07:05:20;;;;;;;;;;;;;;;;;;5066708;28;1178;-76
2022/05/15 07:07:46;;;;;;;;;;;;;;;;;;5071785;28;1321;-75
2022/05/15 07:10:11;;;;;;;;;;;;;;;;;;5035777;28;1326;-75
2022/05/15 07:12:36;;;;;;;;;;;;;;;;;;5057936;28;1918;-76
2022/05/15 07:15:03;;;;;;;;;;;;;;;;;;5072216;28;1275;-75
2022/05/15 07:17:29;;;;;;;;;;;;;;;;;;5090704;28;1212;-75
2022/05/15 07:19:54;;;;;;;;;;;;;;;;;;5053520;28;1192;-76
2022/05/15 07:22:19;;;;;;;;;;;;;;;;;;5084763;28;1240;-76
2022/05/15 07:24:45;;;;;;;;;;;;;;;;;;5087818;28;1113;-76
2022/05/15 07:27:11;;;;;;;;;;;;;;;;;;5080190;28;1049;-76
2022/05/15 07:29:36;;;;;;;;;;;;;;;;;;5051030;28;1429;-75
2022/05/15 07:32:05;;;;;;;;;;;;;;;;;;5069139;28;1129;-76
2022/05/15 07:34:31;;;;;;;;;;;;;;;;;;5067117;28;1890;-76
2022/05/15 07:36:57;;;;;;;;;;;;;;;;;;5068125;28;1187;-75
2022/05/15 07:39:22;;;;;;;;;;;;;;;;;;5066042;28;1276;-75
2022/05/15 07:41:48;;;;;;;;;;;;;;;;;;5053058;28;1363;-75
2022/05/15 07:44:14;;;;;;;;;;;;;;;;;;5061140;28;1204;-76
2022/05/15 07:46:40;;;;;;;;;;;;;;;;;;5072966;28;1420;-75
2022/05/15 07:49:06;;;;;;;;;;;;;;;;;;5083182;28;1330;-76
2022/05/15 07:51:32;;;;;;;;;;;;;;;;;;5048612;28;1546;-76
2022/05/15 07:53:57;;;;;;;;;;;;;;;;;;5067810;28;1959;-75
2022/05/15 07:56:23;;;;;;;;;;;;;;;;;;5078581;28;1223;-79
2022/05/15 07:58:49;;;;;;;;;;;;;;;;;;5067203;28;1227;-76
2022/05/15 08:01:14;;;;;;;;;;;;;;;;;;5053419;28;1252;-77
2022/05/15 08:03:47;;;;;;;;;;;;;;;;;;5082004;28;1141;-76
2022/05/15 08:08:58;;;;;;;;;;;;;;;;;;5085650;28;997;-76
2022/05/15 08:11:27;;;;;;;;;;;;;;;;;;5069698;28;1463;-77
2022/05/15 08:13:53;;;;;;;;;;;;;;;;;;5044490;28;1882;-77
2022/05/15 08:16:18;;;;;;;;;;;;;;;;;;5049991;28;1215;-76
2022/05/15 08:24:14;;;;;;;;;;;;;;;;;;5086429;28;976;-76
2022/05/15 08:26:40;;;;;;;;;;;;;;;;;;5088717;28;1212;-74
2022/05/15 08:29:05;;;;;;;;;;;;;;;;;;5064274;28;1280;-74
2022/05/15 08:31:31;;;;;;;;;;;;;;;;;;5052845;28;1221;-75
2022/05/15 08:33:56;;;;;;;;;;;;;;;;;;5064797;28;1894;-75
2022/05/15 08:36:22;;;;;;;;;;;;;;;;;;5079553;28;1144;-74
2022/05/15 08:38:47;;;;;;;;;;;;;;;;;;5069874;28;1211;-75
2022/05/15 08:41:13;;;;;;;;;;;;;;;;;;5089630;28;917;-74
2022/05/15 08:43:41;;;;;;;;;;;;;;;;;;5084455;28;831;-75
2022/05/15 08:46:17;;;;;;;;;;;;;;;;;;5071414;28;1473;-75
2022/05/15 08:48:42;;;;;;;;;;;;;;;;;;5088015;28;886;-75
2022/05/15 08:51:11;;;;;;;;;;;;;;;;;;5054772;28;1238;-75
2022/05/15 08:53:39;;;;;;;;;;;;;;;;;;5070707;28;1906;-74
2022/05/15 08:56:07;;;;;;;;;;;;;;;;;;5071300;28;1160;-73
2022/05/15 08:58:42;;;;;;;;;;;;;;;;;;5067760;28;1273;-74
2022/05/15 09:01:19;;;;;;;;;;;;;;;;;;5089857;28;901;-74
2022/05/15 09:03:45;;;;;;;;;;;;;;;;;;5070126;28;1251;-75
2022/05/15 09:06:23;;;;;;;;;;;;;;;;;;5054817;28;1196;-75
2022/05/15 09:08:52;;;;;;;;;;;;;;;;;;5070356;28;1191;-74
2022/05/15 09:11:40;;;;;;;;;;;;;;;;;;5088598;28;1216;-74
2022/05/15 09:14:13;;;;;;;;;;;;;;;;;;5060631;28;1951;-74
2022/05/15 09:16:43;;;;;;;;;;;;;;;;;;5089174;28;1077;-74
2022/05/15 09:19:11;;;;;;;;;;;;;;;;;;5051687;28;1262;-74
2022/05/15 09:21:36;;;;;;;;;;;;;;;;;;5047926;28;1286;-74
2022/05/15 09:24:06;;;;;;;;;;;;;;;;;;5048229;28;1308;-74
2022/05/15 09:26:41;;;;;;;;;;;;;;;;;;5046620;28;1337;-75
2022/05/15 09:29:14;;;;;;;;;;;;;;;;;;5043423;28;1299;-75
2022/05/15 09:31:42;;;;;;;;;;;;;;;;;;5048154;28;736;-75
2022/05/15 09:34:19;;;;;;;;;;;;;;;;;;5043763;28;1983;-75
2022/05/15 09:36:45;;;;;;;;;;;;;;;;;;5047289;28;1230;-75
2022/05/15 09:39:17;;;;;;;;;;;;;;;;;;5046152;28;1252;-74
2022/05/15 09:44:31;;;;;;;;;;;;;;;;;;5055991;28;695;-74
2022/05/15 09:46:58;;;;;;;;;;;;;;;;;;5047659;28;846;-74
2022/05/15 09:49:24;;;;;;;;;;;;;;;;;;5065560;28;1228;-74
2022/05/15 09:51:52;;;;;;;;;;;;;;;;;;5087151;28;811;-74
2022/05/15 09:54:50;;;;;;;;;;;;;;;;;;5087054;28;1906;-76
2022/05/15 09:57:18;;;;;;;;;;;;;;;;;;5049285;28;1111;-75
2022/05/15 09:59:51;;;;;;;;;;;;;;;;;;5067353;28;1334;-74
2022/05/15 10:02:18;;;;;;;;;;;;;;;;;;5068653;28;1223;-75
2022/05/15 10:04:46;;;;;;;;;;;;;;;;;;5066863;28;1259;-74
2022/05/15 10:07:27;;;;;;;;;;;;;;;;;;5069401;28;1632;-74
2022/05/15 10:09:53;;;;;;;;;;;;;;;;;;5069671;28;1156;-74
2022/05/15 10:12:27;;;;;;;;;;;;;;;;;;5048719;28;1906;-76
2022/05/15 10:14:54;;;;;;;;;;;;;;;;;;5084713;28;935;-75
2022/05/15 10:17:21;;;;;;;;;;;;;;;;;;5085993;28;1175;-75
2022/05/15 10:19:56;;;;;;;;;;;;;;;;;;5086810;28;1373;-75
2022/05/15 10:22:30;;;;;;;;;;;;;;;;;;5089163;28;1101;-75
2022/05/15 10:24:58;;;;;;;;;;;;;;;;;;5063020;28;1341;-75
2022/05/15 10:27:28;;;;;;;;;;;;;;;;;;5087067;28;1154;-75
2022/05/15 10:30:03;;;;;;;;;;;;;;;;;;5088453;28;1156;-74
2022/05/15 10:32:38;;;;;;;;;;;;;;;;;;5087406;28;1930;-75
2022/05/15 10:35:04;;;;;;;;;;;;;;;;;;5051200;28;1204;-76
2022/05/15 10:37:29;;;;;;;;;;;;;;;;;;5068838;28;1149;-75
2022/05/15 10:39:54;;;;;;;;;;;;;;;;;;5054109;28;1174;-75
2022/05/15 10:42:39;;;;;;;;;;;;;;;;;;5068167;28;1305;-76
2022/05/15 10:45:04;;;;;;;;;;;;;;;;;;5069487;28;1288;-76
2022/05/15 10:48:03;;;;;;;;;;;;;;;;;;5071275;28;1282;-75
2022/05/15 10:50:43;;;;;;;;;;;;;;;;;;5045344;28;1516;-74
2022/05/15 10:59:19;;;;;;;;;;;;;;;;;;5087340;28;1207;-76
2022/05/15 11:01:51;;;;;;;;;;;;;;;;;;5072198;28;1383;-77
2022/05/15 11:04:35;;;;;;;;;;;;;;;;;;5068646;28;1467;-77
2022/05/15 11:07:05;;;;;;;;;;;;;;;;;;5089562;28;1354;-79
2022/05/15 11:09:30;;;;;;;;;;;;;;;;;;5086490;28;1176;-78
2022/05/15 11:12:01;;;;;;;;;;;;;;;;;;5066161;28;1457;-77
2022/05/15 11:14:33;;;;;;;;;;;;;;;;;;5046701;28;2175;-77
2022/05/15 11:17:01;;;;;;;;;;;;;;;;;;5064523;28;1358;-77
2022/05/15 11:19:35;;;;;;;;;;;;;;;;;;5062115;28;1265;-79
2022/05/15 11:22:18;;;;;;;;;;;;;;;;;;5053574;28;1413;-78
2022/05/15 11:24:46;;;;;;;;;;;;;;;;;;5050162;28;1326;-76
2022/05/15 11:27:16;;;;;;;;;;;;;;;;;;5051397;28;1286;-78
2022/05/15 11:29:44;;;;;;;;;;;;;;;;;;5081156;28;1215;-77
2022/05/15 11:32:28;;;;;;;;;;;;;;;;;;5087241;28;1279;-76
2022/05/15 11:35:02;;;;;;;;;;;;;;;;;;5067797;28;1211;-77
2022/05/15 11:37:37;;;;;;;;;;;;;;;;;;5066772;28;1142;-76
2022/05/15 11:40:02;;;;;;;;;;;;;;;;;;5067184;28;1125;-75
2022/05/15 11:42:27;;;;;;;;;;;;;;;;;;5052898;28;1227;-76
2022/05/15 11:44:53;;;;;;;;;;;;;;;;;;5045893;28;1220;-76
2022/05/15 11:47:24;;;;;;;;;;;;;;;;;;5069918;28;1193;-76
2022/05/15 11:50:16;;;;;;;;;;;;;;;;;;5066658;28;1378;-74
2022/05/15 11:52:53;;;;;;;;;;;;;;;;;;5058557;28;1991;-75
2022/05/15 11:55:34;;;;;;;;;;;;;;;;;;5069897;28;1215;-77
2022/05/15 11:58:08;;;;;;;;;;;;;;;;;;5076780;28;1061;-77
2022/05/15 12:00:33;;;;;;;;;;;;;;;;;;5058849;28;1274;-77
2022/05/15 12:02:59;;;;;;;;;;;;;;;;;;5063693;28;1405;-76
2022/05/15 12:05:38;;;;;;;;;;;;;;;;;;5043263;28;1204;-76
2022/05/15 12:08:32;;;;;;;;;;;;;;;;;;5070117;28;1121;-76
2022/05/15 12:11:34;;;;;;;;;;;;;;;;;;5080654;28;1065;-77
2022/05/15 12:14:23;;;;;;;;;;;;;;;;;;5070355;28;1893;-76
2022/05/15 12:17:00;;;;;;;;;;;;;;;;;;5069026;28;1447;-81
2022/05/15 12:19:44;;;;;;;;;;;;;;;;;;5070299;28;1016;-78
2022/05/15 12:22:15;;;;;;;;;;;;;;;;;;5057861;28;1321;-78
2022/05/15 12:24:47;;;;;;;;;;;;;;;;;;5030910;28;1419;-78
2022/05/15 12:27:16;;;;;;;;;;;;;;;;;;5060161;28;1243;-77
2022/05/15 12:29:56;;;;;;;;;;;;;;;;;;5053684;28;1223;-77
2022/05/15 12:32:42;;;;;;;;;;;;;;;;;;5074364;28;1137;-79
2022/05/15 12:35:16;;;;;;;;;;;;;;;;;;5055907;28;1446;-78
2022/05/15 12:37:53;;;;;;;;;;;;;;;;;;5077343;28;1013;-77
2022/05/15 12:40:31;;;;;;;;;;;;;;;;;;5061732;28;1306;-77
2022/05/15 12:42:57;;;;;;;;;;;;;;;;;;5067246;28;1314;-78
2022/05/15 12:45:23;;;;;;;;;;;;;;;;;;5047121;28;1363;-78
2022/05/15 12:48:08;;;;;;;;;;;;;;;;;;5062264;28;1274;-78
2022/05/15 12:50:34;;;;;;;;;;;;;;;;;;5078431;28;1089;-77
2022/05/15 12:53:03;;;;;;;;;;;;;;;;;;5069524;28;1976;-78
2022/05/15 12:55:33;;;;;;;;;;;;;;;;;;5052749;28;1207;-76
2022/05/15 12:57:59;;;;;;;;;;;;;;;;;;5076570;28;1175;-77
2022/05/15 13:00:36;;;;;;;;;;;;;;;;;;5065060;28;1173;-77
2022/05/15 13:03:05;;;;;;;;;;;;;;;;;;5088402;28;1160;-78
2022/05/15 13:05:37;;;;;;;;;;;;;;;;;;5053855;28;1180;-79
2022/05/15 13:08:04;;;;;;;;;;;;;;;;;;5066293;28;1425;-78
2022/05/15 13:10:34;;;;;;;;;;;;;;;;;;5066703;28;1217;-78
2022/05/15 13:13:02;;;;;;;;;;;;;;;;;;5067100;28;2012;-76
2022/05/15 13:15:38;;;;;;;;;;;;;;;;;;5083239;28;1004;-78
2022/05/15 13:18:09;;;;;;;;;;;;;;;;;;5056685;28;1255;-77
2022/05/15 13:20:39;;;;;;;;;;;;;;;;;;5073816;28;1187;-76
2022/05/15 13:23:06;;;;;;;;;;;;;;;;;;5066825;28;1508;-77
2022/05/15 13:25:35;;;;;;;;;;;;;;;;;;5080612;28;1185;-76
2022/05/15 13:28:01;;;;;;;;;;;;;;;;;;5069263;28;1220;-76
2022/05/15 13:30:28;;;;;;;;;;;;;;;;;;5050216;28;1374;-76
2022/05/15 13:32:58;;;;;;;;;;;;;;;;;;5086940;28;1969;-77
2022/05/15 13:35:25;;;;;;;;;;;;;;;;;;5050052;28;1208;-77
2022/05/15 13:37:53;;;;;;;;;;;;;;;;;;5051103;28;1186;-77
2022/05/15 13:43:18;;;;;;;;;;;;;;;;;;5074083;28;1052;-76
2022/05/15 13:45:46;;;;;;;;;;;;;;;;;;5047031;28;1303;-76
2022/05/15 13:48:11;;;;;;;;;;;;;;;;;;5067162;28;902;-77
2022/05/15 13:50:48;;;;;;;;;;;;;;;;;;5063193;28;870;-77
2022/05/15 13:53:17;;;;;;;;;;;;;;;;;;5064549;28;1921;-76
2022/05/15 13:55:42;;;;;;;;;;;;;;;;;;5049472;28;1509;-77
2022/05/15 13:58:07;;;;;;;;;;;;;;;;;;5050198;28;1097;-77
2022/05/15 14:00:39;;;;;;;;;;;;;;;;;;5063145;28;720;-77
2022/05/15 14:03:06;;;;;;;;;;;;;;;;;;5066300;28;854;-77
2022/05/15 14:05:32;;;;;;;;;;;;;;;;;;5065674;28;882;-76
2022/05/15 14:08:19;;;;;;;;;;;;;;;;;;5065055;28;822;-77
2022/05/15 14:10:45;;;;;;;;;;;;;;;;;;5048605;28;1208;-77
2022/05/15 14:13:14;;;;;;;;;;;;;;;;;;5067290;28;1910;-76
2022/05/15 14:15:48;;;;;;;;;;;;;;;;;;5045200;28;1232;-77
2022/05/15 14:18:20;;;;;;;;;;;;;;;;;;5063704;28;1172;-76
2022/05/15 14:20:47;;;;;;;;;;;;;;;;;;5066310;28;1259;-75
2022/05/15 14:23:13;;;;;;;;;;;;;;;;;;5047845;28;1292;-76
2022/05/15 14:25:41;;;;;;;;;;;;;;;;;;5066907;28;849;-77
2022/05/15 14:28:06;;;;;;;;;;;;;;;;;;5048411;28;1175;-77
2022/05/15 14:30:32;;;;;;;;;;;;;;;;;;5064486;28;1040;-77
2022/05/15 14:33:00;;;;;;;;;;;;;;;;;;5047144;28;1886;-78
2022/05/15 14:35:28;;;;;;;;;;;;;;;;;;5045996;28;1182;-77
2022/05/15 14:37:54;;;;;;;;;;;;;;;;;;5062744;28;744;-76
2022/05/15 14:40:20;;;;;;;;;;;;;;;;;;5049770;28;1257;-77
2022/05/15 14:42:45;;;;;;;;;;;;;;;;;;5065308;28;889;-77
2022/05/15 14:45:17;;;;;;;;;;;;;;;;;;5047031;28;1274;-78
2022/05/15 14:47:44;;;;;;;;;;;;;;;;;;5048769;28;1405;-77
2022/05/15 14:50:10;;;;;;;;;;;;;;;;;;5066166;28;1226;-77
2022/05/15 14:52:35;;;;;;;;;;;;;;;;;;5063604;28;1906;-79
2022/05/15 14:55:01;;;;;;;;;;;;;;;;;;5042942;28;1188;-80
2022/05/15 14:57:28;;;;;;;;;;;;;;;;;;5064941;28;1303;-83
2022/05/15 14:59:54;;;;;;;;;;;;;;;;;;5064326;28;1164;-78
2022/05/15 15:02:22;;;;;;;;;;;;;;;;;;5063209;28;1184;-80
2022/05/15 15:04:47;;;;;;;;;;;;;;;;;;5077944;28;1204;-79
2022/05/15 15:07:21;;;;;;;;;;;;;;;;;;5079871;28;1161;-78
2022/05/15 15:09:50;;;;;;;;;;;;;;;;;;5062239;28;1300;-79
2022/05/15 15:12:15;;;;;;;;;;;;;;;;;;5061351;28;1227;-86
2022/05/15 15:14:47;;;;;;;;;;;;;;;;;;5047354;28;1970;-79
2022/05/15 15:17:13;;;;;;;;;;;;;;;;;;5065547;28;1215;-80
2022/05/15 15:19:38;;;;;;;;;;;;;;;;;;5051840;28;1189;-80
2022/05/15 15:22:03;;;;;;;;;;;;;;;;;;5047179;28;1256;-80
2022/05/15 15:24:29;;;;;;;;;;;;;;;;;;5068583;28;1132;-79
2022/05/15 15:26:54;;;;;;;;;;;;;;;;;;5074522;28;1160;-80
2022/05/15 15:29:20;;;;;;;;;;;;;;;;;;5080573;28;1124;-79
2022/05/15 15:31:52;;;;;;;;;;;;;;;;;;5063780;28;1691;-77
2022/05/15 15:34:18;;;;;;;;;;;;;;;;;;5056791;28;1890;-77
2022/05/15 15:38:14;;;;;;;;;;;;;;;;;;5052343;28;1156;-78
2022/05/15 15:39:31;;;;;;;;;;;;;;;;;;5065394;28;1045;-79
2022/05/15 15:41:56;;;;;;;;;;;;;;;;;;5069522;28;1161;-80
2022/05/15 15:44:23;;;;;;;;;;;;;;;;;;5083022;28;1153;-80
2022/05/15 15:46:51;;;;;;;;;;;;;;;;;;5084010;28;1260;-82
2022/05/15 15:49:16;;;;;;;;;;;;;;;;;;5051698;28;1290;-80
2022/05/15 15:51:42;;;;;;;;;;;;;;;;;;5056180;28;1208;-80
2022/05/15 15:54:11;;;;;;;;;;;;;;;;;;5068803;28;1894;-78
2022/05/15 15:56:38;;;;;;;;;;;;;;;;;;5082321;28;1414;-79
2022/05/15 15:59:04;;;;;;;;;;;;;;;;;;5061742;28;1188;-75
2022/05/15 16:01:31;;;;;;;;;;;;;;;;;;5066612;28;1212;-75
2022/05/15 16:04:03;;;;;;;;;;;;;;;;;;5064694;28;1253;-76
2022/05/15 16:06:29;;;;;;;;;;;;;;;;;;5066737;28;1203;-75
2022/05/15 16:08:55;;;;;;;;;;;;;;;;;;5045856;28;1406;-75
2022/05/15 16:11:21;;;;;;;;;;;;;;;;;;5063584;28;1129;-75
2022/05/15 16:13:46;;;;;;;;;;;;;;;;;;5077541;28;1914;-74
2022/05/15 16:16:12;;;;;;;;;;;;;;;;;;5081927;28;1216;-75
2022/05/15 16:18:40;;;;;;;;;;;;;;;;;;5075453;28;1156;-75
2022/05/15 16:21:25;;;;;;;;;;;;;;;;;;5047007;28;1235;-75
2022/05/15 16:23:55;;;;;;;;;;;;;;;;;;5069412;28;1212;-76
2022/05/15 16:26:22;;;;;;;;;;;;;;;;;;5065167;28;1198;-75
2022/05/15 16:28:57;;;;;;;;;;;;;;;;;;5082009;28;1145;-75
2022/05/15 16:31:22;;;;;;;;;;;;;;;;;;5078685;28;1132;-75
2022/05/15 16:33:48;;;;;;;;;;;;;;;;;;5043374;28;1882;-74
2022/05/15 16:36:13;;;;;;;;;;;;;;;;;;5051375;28;1337;-75
2022/05/15 16:38:39;;;;;;;;;;;;;;;;;;5077797;28;1176;-75
2022/05/15 16:41:04;;;;;;;;;;;;;;;;;;5082326;28;1306;-75
2022/05/15 16:43:30;;;;;;;;;;;;;;;;;;5030396;28;1365;-76
2022/05/15 16:45:55;;;;;;;;;;;;;;;;;;5065953;28;1100;-75
2022/05/15 16:48:20;;;;;;;;;;;;;;;;;;5060261;28;1220;-74
2022/05/15 16:50:47;;;;;;;;;;;;;;;;;;5071894;28;1334;-78
2022/05/15 16:53:13;;;;;;;;;;;;;;;;;;5071470;28;2004;-78
2022/05/15 16:55:39;;;;;;;;;;;;;;;;;;5067403;28;1288;-79
2022/05/15 16:58:05;;;;;;;;;;;;;;;;;;5062224;28;1262;-79
2022/05/15 17:00:31;;;;;;;;;;;;;;;;;;5062299;28;1367;-78
2022/05/15 17:02:56;;;;;;;;;;;;;;;;;;5056852;28;1236;-80
2022/05/15 17:05:22;;;;;;;;;;;;;;;;;;5058806;28;1165;-83
2022/05/15 17:07:48;;;;;;;;;;;;;;;;;;5069608;28;1416;-82
2022/05/15 17:10:17;;;;;;;;;;;;;;;;;;5074542;28;1188;-82
2022/05/15 17:12:43;;;;;;;;;;;;;;;;;;5065904;28;1985;-80
2022/05/15 17:15:08;;;;;;;;;;;;;;;;;;5065680;28;1278;-83
2022/05/15 17:17:33;;;;;;;;;;;;;;;;;;5062741;28;1283;-80
2022/05/15 17:19:59;;;;;;;;;;;;;;;;;;5073856;28;1030;-82
2022/05/15 17:22:32;;;;;;;;;;;;;;;;;;5038657;28;1364;-79
2022/05/15 17:25:00;;;;;;;;;;;;;;;;;;5065129;28;1058;-79
2022/05/15 17:27:26;;;;;;;;;;;;;;;;;;5028792;28;1240;-74
2022/05/15 17:35:20;;;;;;;;;;;;;;;;;;5071691;28;1053;-80
2022/05/15 17:37:46;;;;;;;;;;;;;;;;;;5063264;28;1233;-75
2022/05/15 17:40:17;;;;;;;;;;;;;;;;;;5067214;28;1289;-76
2022/05/15 17:42:43;;;;;;;;;;;;;;;;;;5070389;28;1195;-77
2022/05/15 17:45:09;;;;;;;;;;;;;;;;;;5063807;28;1137;-74